M I D A S
Marine Information and Data Acquisition System
Tripno 947 of the Zeeleeuw from 2005-07-07 06:26:53 to 2005-07-07 13:50:01
Back to CruiseResearch ActivitiesStationsMapUnderway DataData graphs

EquipmentUnitsComment
TimeDGPSUTC
LatitudeDGPSDM.mWGS84
LongitudeDGPSDM.mWGS84
HeadingGyrodeg 
SOGDGPSknotsSpeed over ground
COGDGPSdegCourse over ground
DepthEcho soundermeters200 kHz
Missing or incorrect values are displayed as -999
Navigation data collected by the RV Zeeleeuw from 2005-07-07 06:32:39 to 2005-07-07 14:01:09
Time Latitude Longitude Heading SOG COG Depth
2005-07-07 06:33:44 51°13.598 2°56.097 109.7 1.2 106 5.1
2005-07-07 06:34:44 51°13.57 2°56.157 140 3.3 136 5.8
2005-07-07 06:35:44 51°13.549 2°56.231 95 1.5 88 8.6
2005-07-07 06:36:44 51°13.552 2°56.231 64.4 1.2 46 4.8
2005-07-07 06:37:44 51°13.545 2°56.209 39.4 1.5 34 8.6
2005-07-07 06:38:44 51°13.544 2°56.198 24.8 2 7 -999
2005-07-07 06:39:44 51°13.548 2°56.188 349.7 2.7 335 5
2005-07-07 06:40:44 51°13.545 2°56.192 308.2 1.4 313 4.8
2005-07-07 06:41:44 51°13.578 2°56.075 302.8 6.2 299 9
2005-07-07 06:42:44 51°13.644 2°55.918 309.1 7.6 305 8.5
2005-07-07 06:43:44 51°13.723 2°55.754 316.5 7.9 309 11
2005-07-07 06:44:44 51°13.831 2°55.632 339.6 8 333 9.5
2005-07-07 06:45:44 51°13.957 2°55.539 341.3 8.4 337 9.9
2005-07-07 06:46:44 51°14.089 2°55.447 340.1 9.4 336 9.4
2005-07-07 06:47:44 51°14.232 2°55.305 325 10.5 319 9.7
2005-07-07 06:48:44 51°14.348 2°55.098 315.8 10.5 312 9.4
2005-07-07 06:49:44 51°14.485 2°54.895 329.3 11.8 325 9.2
2005-07-07 06:50:45 51°14.672 2°54.745 339.5 12.1 336 -999
2005-07-07 06:51:44 51°14.851 2°54.597 339.6 12.2 332 8.2
2005-07-07 06:52:44 51°15.029 2°54.449 339.6 12.3 333 7.8
2005-07-07 06:53:44 51°15.211 2°54.291 339.5 12.7 331 7.9
2005-07-07 06:54:44 51°15.391 2°54.139 338.9 12.2 331 9
2005-07-07 06:55:44 51°15.572 2°53.976 339.5 12.9 331 9.2
2005-07-07 06:56:44 51°15.755 2°53.811 339.2 12.7 330 10
2005-07-07 06:57:44 51°15.935 2°53.648 339.1 12.1 330 10.8
2005-07-07 06:58:44 51°16.117 2°53.489 343.6 12.8 331 10.7
2005-07-07 06:59:44 51°16.307 2°53.337 341.8 12.8 333 10.7
2005-07-07 07:00:44 51°16.493 2°53.186 342.2 12.4 332 10.8
2005-07-07 07:01:44 51°16.677 2°53.021 339.2 12.2 331 10.1
2005-07-07 07:02:44 51°16.855 2°52.863 339 12.6 331 8.3
2005-07-07 07:03:44 51°17.037 2°52.7 339 12.6 330 9
2005-07-07 07:04:45 51°17.22 2°52.543 340.3 11.6 334 -999
2005-07-07 07:05:44 51°17.396 2°52.387 340.2 12.4 331 9.3
2005-07-07 07:06:44 51°17.578 2°52.219 339 12.7 330 9.6
2005-07-07 07:07:44 51°17.774 2°52.128 358.8 12.1 348 9.4
2005-07-07 07:08:44 51°17.975 2°52.123 11.2 12.1 7 9.2
2005-07-07 07:09:44 51°18.176 2°52.137 8.2 12 1 9.9
2005-07-07 07:10:44 51°18.379 2°52.147 10.4 12.5 6 10.5
2005-07-07 07:11:44 51°18.583 2°52.159 10.6 12.3 2 11.4
2005-07-07 07:12:44 51°18.789 2°52.165 9.8 12.5 4 12
2005-07-07 07:13:44 51°18.996 2°52.17 10 12.4 1 12.4
2005-07-07 07:14:43 51°19.199 2°52.171 8.7 12.2 359 14.5
2005-07-07 07:15:44 51°19.402 2°52.173 9.8 12 -999 14.4
2005-07-07 07:16:44 51°19.607 2°52.171 8.7 12.3 359 15
2005-07-07 07:17:44 51°19.812 2°52.166 9.4 -999 -999 15.5
2005-07-07 07:18:44 51°20.014 2°52.177 11.2 12.5 4 15.5
2005-07-07 07:19:44 51°20.218 2°52.188 11.5 12.3 359 14.1
2005-07-07 07:20:44 51°20.423 2°52.158 4.3 12.4 356 13.8
2005-07-07 07:21:44 51°20.625 2°52.18 17.2 12.1 4 13.5
2005-07-07 07:22:44 51°20.826 2°52.191 1.3 12.3 347 13.4
2005-07-07 07:23:44 51°21.005 2°52.021 331.4 12.8 319 15.5
2005-07-07 07:24:44 51°21.159 2°51.778 327.1 12.8 316 18
2005-07-07 07:25:44 51°21.328 2°51.566 337.1 12.8 326 20.7
2005-07-07 07:26:44 51°21.521 2°51.428 350.7 12.7 342 22.5
2005-07-07 07:27:44 51°21.726 2°51.385 9.5 12.4 1 23.6
2005-07-07 07:28:44 51°21.927 2°51.435 23.9 12.1 18 22.7
2005-07-07 07:29:44 51°22.112 2°51.563 29.3 12.4 14 23.2
2005-07-07 07:30:44 51°22.298 2°51.681 32 12.2 27 22.8
2005-07-07 07:31:44 51°22.488 2°51.802 29.1 12.4 19 22.2
2005-07-07 07:32:44 51°22.675 2°51.918 30 12.3 15 22.4
2005-07-07 07:33:44 51°22.863 2°52.034 28.5 12.2 19 22.3
2005-07-07 07:34:44 51°23.047 2°52.15 29.5 12 20 22.1
2005-07-07 07:35:44 51°23.236 2°52.261 28.1 12 18 21.5
2005-07-07 07:36:44 51°23.42 2°52.373 27.5 12 15 19.8
2005-07-07 07:37:44 51°23.606 2°52.481 28.3 11.8 19 17.7
2005-07-07 07:38:44 51°23.787 2°52.606 30.9 11.9 20 17
2005-07-07 07:39:44 51°23.969 2°52.735 33 -999 -999 15.6
2005-07-07 07:40:44 51°24.144 2°52.868 31.2 11.5 34 16.4
2005-07-07 07:41:44 51°24.329 2°52.984 26.8 12.1 20 18.2
2005-07-07 07:42:44 51°24.518 2°53.085 27.9 11.8 23 17.4
2005-07-07 07:43:44 51°24.707 2°53.191 26.5 12.2 24 19
2005-07-07 07:44:44 51°24.894 2°53.295 27.2 12.1 17 18.3
2005-07-07 07:45:44 51°25.082 2°53.403 27.8 12 21 20.3
2005-07-07 07:46:44 51°25.271 2°53.511 28.2 12 17 21
2005-07-07 07:47:44 51°25.456 2°53.625 28.5 11.8 22 21.9
2005-07-07 07:48:44 51°25.648 2°53.73 27.5 12.2 22 24.3
2005-07-07 07:49:44 51°25.837 2°53.839 29 12.2 21 24.8
2005-07-07 07:50:44 51°26.021 2°53.956 28.9 11.9 21 24
2005-07-07 07:51:44 51°26.205 2°54.081 29.6 12.2 17 23.6
2005-07-07 07:52:44 51°26.393 2°54.207 29.1 12.2 22 26
2005-07-07 07:53:44 51°26.58 2°54.33 29.6 12 27 28.3
2005-07-07 07:54:44 51°26.765 2°54.448 29 11.9 25 20.5
2005-07-07 07:55:44 51°26.945 2°54.571 29.6 11.7 27 26.4
2005-07-07 07:56:44 51°27.123 2°54.696 30.7 11.7 29 28.5
2005-07-07 07:57:44 51°27.308 2°54.82 29.1 12 22 28.7
2005-07-07 07:58:44 51°27.489 2°54.944 28.9 11.7 21 28.1
2005-07-07 07:59:44 51°27.667 2°55.07 29.2 12 22 27.3
2005-07-07 08:00:44 51°27.848 2°55.195 29.6 12 27 27.2
2005-07-07 08:01:44 51°28.03 2°55.322 29.9 11.8 25 26.9
2005-07-07 08:02:44 51°28.21 2°55.456 29.9 12 21 24.9
2005-07-07 08:03:44 51°28.392 2°55.588 30 12 23 22.6
2005-07-07 08:04:44 51°28.576 2°55.722 28.9 12.1 24 23.2
2005-07-07 08:05:44 51°28.758 2°55.857 28.9 12.2 25 23
2005-07-07 08:06:44 51°28.943 2°55.99 30.4 12.1 24 21.3
2005-07-07 08:07:44 51°29.125 2°56.124 29.7 12.1 26 21.8
2005-07-07 08:08:44 51°29.304 2°56.256 29 12 25 24.3
2005-07-07 08:09:44 51°29.489 2°56.385 28.6 11.9 29 26
2005-07-07 08:10:44 51°29.671 2°56.514 29.3 12.1 22 27.1
2005-07-07 08:11:44 51°29.853 2°56.647 27.7 12.3 24 27.3
2005-07-07 08:12:44 51°30.037 2°56.781 27.9 12 21 27.8
2005-07-07 08:13:45 51°30.222 2°56.913 29.2 12.1 24 29
2005-07-07 08:14:44 51°30.409 2°57.04 28.6 12.2 21 29.6
2005-07-07 08:15:44 51°30.593 2°57.165 27.7 11.8 28 29.3
2005-07-07 08:16:44 51°30.777 2°57.291 29.4 12.1 18 29.7
2005-07-07 08:17:44 51°30.959 2°57.42 27.8 12 30 29.6
2005-07-07 08:18:43 51°31.138 2°57.544 29.7 12 24 29.9
2005-07-07 08:19:44 51°31.319 2°57.673 31.9 11.9 31 30
2005-07-07 08:20:44 51°31.497 2°57.801 29.6 11.4 30 33
2005-07-07 08:21:44 51°31.682 2°57.926 30.6 12.2 29 34.4
2005-07-07 08:22:44 51°31.849 2°58.087 36.8 11.9 29 35.1
2005-07-07 08:23:44 51°32.018 2°58.252 36.4 11.8 33 35.5
2005-07-07 08:24:44 51°32.186 2°58.423 39.4 11.9 41 32.5
2005-07-07 08:25:44 51°32.344 2°58.598 36.2 11.1 38 28.3
2005-07-07 08:26:44 51°32.507 2°58.768 37.7 11.5 33 26.9
2005-07-07 08:27:44 51°32.641 2°58.907 38 8.8 26 23
2005-07-07 08:28:44 51°32.746 2°59.022 42 7.3 38 16.4
2005-07-07 08:29:44 51°32.825 2°59.085 24.1 4.3 8 19.1
2005-07-07 08:30:44 51°32.87 2°59.131 55.1 2.8 49 16.9
2005-07-07 08:31:44 51°32.885 2°59.177 60.2 1.2 78 17.7
2005-07-07 08:32:44 51°32.879 2°59.183 69.5 0.8 186 18.9
2005-07-07 08:33:44 51°32.863 2°59.176 72.9 0.9 195 20
2005-07-07 08:34:44 51°32.844 2°59.162 70.4 1.2 202 20.8
2005-07-07 08:35:44 51°32.825 2°59.142 67.5 1.4 211 21.9
2005-07-07 08:36:44 51°32.806 2°59.119 62 1.5 222 22.3
2005-07-07 08:37:44 51°32.785 2°59.092 54 1.6 223 21.7
2005-07-07 08:38:44 51°32.763 2°59.062 45.1 1.7 219 20.7
2005-07-07 08:39:44 51°32.737 2°59.03 31.8 2 210 16.9
2005-07-07 08:40:44 51°32.71 2°58.996 28.9 2.2 222 20.8
2005-07-07 08:41:44 51°32.726 2°58.983 24 3.8 3 17.3
2005-07-07 08:42:44 51°32.803 2°59.102 55.2 7.4 52 21.4
2005-07-07 08:43:44 51°32.913 2°59.223 40.1 8 30 17.7
2005-07-07 08:44:44 51°33.024 2°59.354 43.3 8.6 38 15.4
2005-07-07 08:45:44 51°33.121 2°59.534 46.9 8.7 40 17.7
2005-07-07 08:46:44 51°33.191 2°59.659 54.5 3.9 49 17.4
2005-07-07 08:47:44 51°33.197 2°59.677 36.3 0.1 255 18.4
2005-07-07 08:48:44 51°33.195 2°59.666 22.1 0.5 244 17.2
2005-07-07 08:49:44 51°33.224 2°59.67 35.9 4 34 15.1
2005-07-07 08:50:44 51°33.299 2°59.823 52.5 9.5 52 17
2005-07-07 08:51:44 51°33.404 3°0.005 42.6 8.1 36 17.5
2005-07-07 08:52:44 51°33.43 3°0.065 75.5 1 164 17.4
2005-07-07 08:53:44 51°33.404 3°0.063 119.3 1.6 182 19.8
2005-07-07 08:54:44 51°33.368 3°0.058 136.9 2.4 190 23.4
2005-07-07 08:55:44 51°33.329 3°0.054 128.1 2.3 186 26.2
2005-07-07 08:56:44 51°33.295 3°0.049 116.4 1.9 186 28.2
2005-07-07 08:57:45 51°33.265 3°0.04 98.5 1.5 201 29
2005-07-07 08:58:44 51°33.259 3°0.057 59.6 2.4 49 29.6
2005-07-07 08:59:44 51°33.347 3°0.117 36.9 7.6 27 27
2005-07-07 09:00:44 51°33.474 3°0.234 30.2 9.1 24 20.3
2005-07-07 09:01:44 51°33.55 3°0.331 43.2 2 44 18.3
2005-07-07 09:02:44 51°33.552 3°0.315 0.5 0.9 264 17.3
2005-07-07 09:03:44 51°33.549 3°0.285 359.2 1 261 16.6
2005-07-07 09:04:44 51°33.58 3°0.303 44.4 4.3 47 15.6
2005-07-07 09:05:44 51°33.649 3°0.462 56.8 8.8 58 15.9
2005-07-07 09:06:44 51°33.74 3°0.66 51.5 9.5 51 12.3
2005-07-07 09:07:44 51°33.818 3°0.842 54.2 6.7 61 16.5
2005-07-07 09:08:44 51°33.818 3°0.923 69.6 1.2 161 17.8
2005-07-07 09:09:44 51°33.796 3°0.921 47.5 1.2 190 16.4
2005-07-07 09:10:44 51°33.778 3°0.912 27.7 1.1 208 13.3
2005-07-07 09:11:44 51°33.76 3°0.891 16.8 1.4 223 17.3
2005-07-07 09:12:44 51°33.741 3°0.864 6.1 1.6 224 18.5
2005-07-07 09:13:44 51°33.747 3°0.804 315.4 4.1 284 16.5
2005-07-07 09:14:44 51°33.765 3°0.609 292.2 9.2 276 14.7
2005-07-07 09:15:44 51°33.782 3°0.34 290.6 10.4 277 12.6
2005-07-07 09:16:44 51°33.785 3°0.066 289.1 10.4 274 14.1
2005-07-07 09:17:44 51°33.791 2°59.888 286.5 4.3 261 14
2005-07-07 09:18:45 51°33.764 2°59.854 243.4 1.4 185 -999
2005-07-07 09:19:45 51°33.74 2°59.84 225 1.8 202 -999
2005-07-07 09:20:44 51°33.712 2°59.818 215.6 2 207 5.5
2005-07-07 09:21:44 51°33.681 2°59.793 206.4 2.1 203 12.5
2005-07-07 09:22:44 51°33.646 2°59.766 197.2 2.3 203 14.8
2005-07-07 09:23:44 51°33.608 2°59.741 184.3 2.4 203 13.6
2005-07-07 09:24:44 51°33.571 2°59.719 169.8 2.9 194 13.4
2005-07-07 09:25:43 51°33.487 2°59.668 231.2 6.7 224 13.2
2005-07-07 09:26:44 51°33.423 2°59.486 257.2 8.3 244 13.3
2005-07-07 09:27:44 51°33.356 2°59.281 252.1 8.7 241 14.4
2005-07-07 09:28:44 51°33.32 2°59.164 288.1 2.4 229 15.8
2005-07-07 09:29:44 51°33.282 2°59.162 293.9 2.1 188 4.6
2005-07-07 09:30:44 51°33.248 2°59.153 284.6 2 194 15
2005-07-07 09:31:44 51°33.216 2°59.141 281.7 2.2 191 14.4
2005-07-07 09:32:44 51°33.182 2°59.125 284.5 2.2 197 13
2005-07-07 09:33:45 51°33.162 2°59.069 303.1 3.7 267 15.8
2005-07-07 09:34:44 51°33.175 2°58.854 277.7 10.4 265 16.1
2005-07-07 09:35:44 51°33.168 2°58.571 289.7 10.6 280 17.9
2005-07-07 09:36:44 51°33.228 2°58.463 10.2 3.2 353 18.1
2005-07-07 09:37:44 51°33.238 2°58.474 65.7 0.8 175 16.2
2005-07-07 09:38:44 51°33.212 2°58.473 96.5 1.9 186 18.4
2005-07-07 09:39:44 51°33.177 2°58.466 111 2.1 192 17.8
2005-07-07 09:40:45 51°33.14 2°58.453 116.1 2.3 196 17.6
2005-07-07 09:41:44 51°33.11 2°58.503 79 3.6 109 17.5
2005-07-07 09:42:45 51°33.177 2°58.592 31.2 7.2 27 18
2005-07-07 09:43:44 51°33.305 2°58.661 23.9 8.6 16 17.3
2005-07-07 09:44:44 51°33.437 2°58.747 33.9 8.6 27 19.1
2005-07-07 09:45:44 51°33.504 2°58.828 43.1 3.5 47 18.6
2005-07-07 09:46:45 51°33.516 2°58.861 41.6 0.3 91 19.9
2005-07-07 09:47:45 51°33.511 2°58.859 34.9 0.5 193 19.8
2005-07-07 09:48:45 51°33.497 2°58.845 29.7 1.2 224 19.1
2005-07-07 09:49:44 51°33.476 2°58.821 21 1.8 213 18.1
2005-07-07 09:50:44 51°33.449 2°58.787 357.3 2.2 219 17.6
2005-07-07 09:51:45 51°33.417 2°58.755 331.3 2.3 211 19.4
2005-07-07 09:52:44 51°33.387 2°58.727 310.5 2.1 209 17.9
2005-07-07 09:53:44 51°33.355 2°58.704 301.7 2 202 17.2
2005-07-07 09:54:45 51°33.321 2°58.685 297.7 2.2 198 16.7
2005-07-07 09:55:44 51°33.286 2°58.67 294.3 2.1 194 17.2
2005-07-07 09:56:44 51°33.25 2°58.655 288.5 2.3 195 17.8
2005-07-07 09:57:44 51°33.216 2°58.638 285.5 2.1 199 17.1
2005-07-07 09:58:44 51°33.18 2°58.621 288.5 2 198 18.3
2005-07-07 09:59:44 51°33.159 2°58.578 312.4 2.2 259 17.7
2005-07-07 10:00:44 51°33.171 2°58.546 13.7 1.4 346 18
2005-07-07 10:01:44 51°33.18 2°58.587 61.8 2.5 85 18.6
2005-07-07 10:02:44 51°33.201 2°58.653 41.9 3 54 16.9
2005-07-07 10:03:44 51°33.244 2°58.701 28 3.2 28 17.4
2005-07-07 10:04:44 51°33.293 2°58.739 27.9 3.3 27 16.9
2005-07-07 10:05:44 51°33.341 2°58.782 30.5 3.3 30 18
2005-07-07 10:06:44 51°33.391 2°58.826 29.5 3.5 27 18.4
2005-07-07 10:07:44 51°33.443 2°58.87 28.8 3.6 25 18.2
2005-07-07 10:08:44 51°33.493 2°58.912 28.9 3.4 27 19.7
2005-07-07 10:09:44 51°33.543 2°58.959 32.4 3.5 31 18.9
2005-07-07 10:10:44 51°33.593 2°59.008 31 3.6 31 17.9
2005-07-07 10:11:44 51°33.643 2°59.054 33.4 3.5 35 19.7
2005-07-07 10:12:44 51°33.685 2°59.114 39.9 3 42 18.8
2005-07-07 10:13:44 51°33.708 2°59.152 38.7 1.5 45 19.9
2005-07-07 10:14:45 51°33.719 2°59.173 32.4 0.8 45 19.5
2005-07-07 10:15:44 51°33.731 2°59.18 22.7 0.9 5 19.2
2005-07-07 10:16:45 51°33.747 2°59.184 24.8 1 7 18.9
2005-07-07 10:17:44 51°33.763 2°59.196 32.8 1.2 36 17.3
2005-07-07 10:18:44 51°33.774 2°59.212 34.1 0.7 54 18.2
2005-07-07 10:19:44 51°33.776 2°59.219 32.9 0.1 114 18.5
2005-07-07 10:20:44 51°33.774 2°59.218 32.6 0.3 186 18.4
2005-07-07 10:21:44 51°33.769 2°59.215 32.1 0.4 186 18.2
2005-07-07 10:22:44 51°33.764 2°59.214 33.2 0.2 158 18.1
2005-07-07 10:23:44 51°33.763 2°59.218 32.9 0.1 78 17.8
2005-07-07 10:24:44 51°33.764 2°59.22 26.6 0.1 53 18.3
2005-07-07 10:25:44 51°33.765 2°59.217 29.2 0.2 113 17.9
2005-07-07 10:26:44 51°33.767 2°59.219 33.5 0.1 55 18.3
2005-07-07 10:27:44 51°33.768 2°59.227 37.7 0.4 84 18.4
2005-07-07 10:28:44 51°33.769 2°59.239 37.7 0.4 77 19.1
2005-07-07 10:29:44 51°33.771 2°59.25 32.5 0.3 71 19.5
2005-07-07 10:30:44 51°33.773 2°59.251 26.4 0.2 250 19.3
2005-07-07 10:31:44 51°33.767 2°59.241 20.3 0.6 218 18.9
2005-07-07 10:32:45 51°33.756 2°59.224 15.2 1 222 17.9
2005-07-07 10:33:44 51°33.767 2°59.206 7 3.7 351 18
2005-07-07 10:34:44 51°33.849 2°59.289 50.4 6.5 50 19.9
2005-07-07 10:35:44 51°33.9 2°59.348 6.5 3.2 350 20.7
2005-07-07 10:36:44 51°33.95 2°59.32 18.2 4.4 20 21
2005-07-07 10:37:44 51°33.962 2°59.478 96.6 7.9 103 19.7
2005-07-07 10:38:44 51°33.967 2°59.591 48.6 2.5 57 20.1
2005-07-07 10:39:45 51°33.973 2°59.604 23.7 0.2 251 20.2
2005-07-07 10:40:44 51°33.963 2°59.593 10.8 1.2 222 20
2005-07-07 10:41:44 51°33.967 2°59.588 28.3 2.8 23 20.3
2005-07-07 10:42:44 51°34.054 2°59.685 39.2 7.6 35 20.3
2005-07-07 10:43:44 51°34.148 2°59.852 52.8 8.5 51 18.5
2005-07-07 10:44:44 51°34.209 2°59.949 30.6 3 29 18.9
2005-07-07 10:45:44 51°34.223 2°59.954 6.9 0.5 286 18.9
2005-07-07 10:46:44 51°34.214 2°59.926 339.7 1.6 233 19.3
2005-07-07 10:47:44 51°34.207 2°59.874 313.8 3.1 274 19.7
2005-07-07 10:48:44 51°34.193 2°59.744 276.3 7.2 259 20.4
2005-07-07 10:49:44 51°34.17 2°59.516 275.4 9.4 262 21.1
2005-07-07 10:50:45 51°34.162 2°59.295 304.3 6.3 283 24.4
2005-07-07 10:51:44 51°34.179 2°59.229 350.2 1.4 248 24
2005-07-07 10:52:44 51°34.164 2°59.197 357.9 1.6 216 21.6
2005-07-07 10:53:44 51°34.138 2°59.163 338.4 2 226 23.8
2005-07-07 10:54:44 51°34.117 2°59.082 263.1 4.6 236 22.3
2005-07-07 10:55:44 51°34.026 2°58.959 220.1 9.4 214 22.4
2005-07-07 10:56:44 51°33.876 2°58.806 216.2 11 212 20.4
2005-07-07 10:57:44 51°33.731 2°58.679 220.8 8.1 217 22.1
2005-07-07 10:58:44 51°33.716 2°58.533 318.2 4.3 293 21.7
2005-07-07 10:59:44 51°33.711 2°58.488 338.6 1.4 234 21.5
2005-07-07 11:00:44 51°33.689 2°58.458 327.3 2 218 22.5
2005-07-07 11:01:45 51°33.665 2°58.419 297.7 2.4 242 21
2005-07-07 11:02:44 51°33.668 2°58.245 291.1 8.1 277 21
2005-07-07 11:03:44 51°33.687 2°57.997 287.1 9.6 277 23.2
2005-07-07 11:04:44 51°33.717 2°57.765 321 6.8 308 24.8
2005-07-07 11:05:44 51°33.766 2°57.725 20.2 1.2 344 25.2
2005-07-07 11:06:44 51°33.762 2°57.713 44.9 0.7 215 26
2005-07-07 11:07:44 51°33.744 2°57.705 72 1.4 198 26.5
2005-07-07 11:08:44 51°33.729 2°57.742 72.6 2.9 92 25.8
2005-07-07 11:09:44 51°33.78 2°57.827 38.3 6.7 34 26.2
2005-07-07 11:10:44 51°33.878 2°57.975 47.4 8.7 40 26.7
2005-07-07 11:11:44 51°33.959 2°58.125 59.3 5.6 59 27.2
2005-07-07 11:12:44 51°33.984 2°58.178 44.9 0.3 89 26.9
2005-07-07 11:13:44 51°33.979 2°58.181 31.8 0.6 194 27.1
2005-07-07 11:14:44 51°33.965 2°58.17 15.6 1.3 215 27.1
2005-07-07 11:15:45 51°34.005 2°58.169 22.6 3.7 356 27.3
2005-07-07 11:16:44 51°34.067 2°58.304 61.9 7.3 63 21.5
2005-07-07 11:17:45 51°34.144 2°58.467 55.1 7.8 56 26.7
2005-07-07 11:18:44 51°34.189 2°58.543 37.9 1.5 38 25.7
2005-07-07 11:19:44 51°34.187 2°58.553 51.1 0.6 146 24.7
2005-07-07 11:20:44 51°34.176 2°58.557 54.4 0.9 180 25.9
2005-07-07 11:21:44 51°34.171 2°58.575 50 2.5 60 24.8
2005-07-07 11:22:45 51°34.24 2°58.67 44.1 6 40 27.3
2005-07-07 11:23:44 51°34.315 2°58.794 58.1 5.4 56 24.1
2005-07-07 11:24:44 51°34.34 2°58.848 42.7 0.5 92 26.8
2005-07-07 11:25:44 51°34.335 2°58.856 44.9 0.5 161 26.6
2005-07-07 11:26:44 51°34.322 2°58.856 47.1 0.9 182 26.3
2005-07-07 11:27:44 51°34.371 2°58.896 25.9 6.8 20 27.6
2005-07-07 11:28:45 51°34.505 2°58.985 46 7.8 47 27.5
2005-07-07 11:29:45 51°34.543 2°59.136 66.8 5.7 71 27.5
2005-07-07 11:30:44 51°34.563 2°59.219 55.5 1.7 78 27.8
2005-07-07 11:31:44 51°34.556 2°59.24 55.7 0.8 134 27.6
2005-07-07 11:32:45 51°34.543 2°59.249 54.4 -999 -999 27.7
2005-07-07 11:33:44 51°34.537 2°59.273 48.4 2.9 54 27.4
2005-07-07 11:34:45 51°34.634 2°59.249 333.8 7.8 325 24.7
2005-07-07 11:35:44 51°34.761 2°59.12 332.5 9.7 322 28.9
2005-07-07 11:36:44 51°34.88 2°58.935 321.2 10.2 311 30
2005-07-07 11:37:44 51°34.968 2°58.854 6.8 3.9 352 31.3
2005-07-07 11:38:45 51°34.983 2°58.852 35.2 0.3 343 31.4
2005-07-07 11:39:45 51°34.977 2°58.855 65.5 0.8 170 31.2
2005-07-07 11:40:44 51°34.96 2°58.859 86.1 1 167 31.1
2005-07-07 11:41:44 51°34.958 2°58.896 50.9 1.7 88 30.8
2005-07-07 11:42:44 51°35.002 2°58.868 317.2 3.9 312 31.2
2005-07-07 11:43:44 51°34.958 2°58.719 230 8.5 233 31.9
2005-07-07 11:44:44 51°34.821 2°58.528 224.2 11.4 221 31.1
2005-07-07 11:45:44 51°34.687 2°58.346 219.8 9.4 218 26
2005-07-07 11:46:44 51°34.645 2°58.305 247 1 183 30.7
2005-07-07 11:47:45 51°34.628 2°58.3 258 1.1 194 31
2005-07-07 11:48:45 51°34.609 2°58.295 268 1.1 190 31.2
2005-07-07 11:49:44 51°34.591 2°58.253 269.9 3.9 255 31.1
2005-07-07 11:50:44 51°34.526 2°58.152 207.5 7.1 203 31.3
2005-07-07 11:51:45 51°34.406 2°58.052 211 8.4 209 30.4
2005-07-07 11:52:44 51°34.32 2°57.931 242.3 4.8 233 29.4
2005-07-07 11:53:44 51°34.299 2°57.907 247.9 0.8 175 28.5
2005-07-07 11:54:44 51°34.284 2°57.909 245 1 182 27.8
2005-07-07 11:55:45 51°34.268 2°57.907 246.9 1 190 28.4
2005-07-07 11:56:44 51°34.232 2°57.805 255.5 6.5 248 29.4
2005-07-07 11:57:44 51°34.167 2°57.617 244.9 8.5 239 29.5
2005-07-07 11:58:44 51°34.068 2°57.438 232 9.2 229 30
2005-07-07 11:59:45 51°33.998 2°57.275 251.6 4.7 246 30.2
2005-07-07 12:00:44 51°33.982 2°57.247 264.2 1 207 30.1
2005-07-07 12:01:45 51°33.968 2°57.234 274 0.9 205 30.2
2005-07-07 12:02:44 51°33.953 2°57.231 278.5 0.8 188 30
2005-07-07 12:03:44 51°33.93 2°57.171 252 4.1 246 29.6
2005-07-07 12:04:44 51°33.859 2°57.042 221.3 7.2 216 30
2005-07-07 12:05:44 51°33.729 2°56.989 191.3 8.6 188 30.3
2005-07-07 12:06:44 51°33.581 2°56.957 190.8 8.9 187 27.2
2005-07-07 12:07:44 51°33.434 2°56.922 192.4 9 190 29.4
2005-07-07 12:08:44 51°33.285 2°56.884 192.3 9 189 25.9
2005-07-07 12:09:44 51°33.137 2°56.848 192.8 9.1 188 25.9
2005-07-07 12:10:44 51°32.989 2°56.81 193 8.9 189 25.9
2005-07-07 12:11:45 51°32.838 2°56.775 192.8 9 189 25.8
2005-07-07 12:12:44 51°32.691 2°56.742 193.5 9 189 23.7
2005-07-07 12:13:44 51°32.542 2°56.709 192.8 9.1 187 21.7
2005-07-07 12:14:45 51°32.392 2°56.678 193.7 9.1 187 22.2
2005-07-07 12:15:44 51°32.245 2°56.652 193.7 8.9 187 20.7
2005-07-07 12:16:44 51°32.1 2°56.622 194 8.9 187 21.9
2005-07-07 12:17:44 51°31.952 2°56.596 194.5 8.8 187 19.2
2005-07-07 12:18:45 51°31.804 2°56.569 193.8 8.9 187 20.2
2005-07-07 12:19:44 51°31.66 2°56.541 194 8.9 187 20.2
2005-07-07 12:20:44 51°31.512 2°56.518 194.2 8.8 187 19.3
2005-07-07 12:21:44 51°31.369 2°56.493 193.6 8.8 186 27.6
2005-07-07 12:22:44 51°31.225 2°56.468 193.5 8.6 187 35.7
2005-07-07 12:23:44 51°31.086 2°56.435 192.6 8.4 186 35.1
2005-07-07 12:24:44 51°30.95 2°56.4 192.7 8.3 186 35
2005-07-07 12:25:44 51°30.813 2°56.367 193 8.3 188 34.4
2005-07-07 12:26:44 51°30.674 2°56.332 194.1 8.4 189 34.7
2005-07-07 12:27:45 51°30.535 2°56.297 193.4 8.3 189 33
2005-07-07 12:28:44 51°30.399 2°56.265 192.4 8.5 188 32.6
2005-07-07 12:29:45 51°30.218 2°56.213 194.5 12.2 190 33.1
2005-07-07 12:30:45 51°30.01 2°56.155 192.7 12.8 190 31.8
2005-07-07 12:31:44 51°29.8 2°56.109 188.4 12.6 189 30.1
2005-07-07 12:32:44 51°29.591 2°56.074 189.7 12.9 185 28.6
2005-07-07 12:33:44 51°29.379 2°56.037 191.1 12.9 184 27.7
2005-07-07 12:34:44 51°29.166 2°56.004 189.5 12.8 185 26.2
2005-07-07 12:35:44 51°28.955 2°55.963 189.3 12.4 184 25
2005-07-07 12:36:44 51°28.751 2°55.928 190.3 12.2 186 23.3
2005-07-07 12:37:44 51°28.546 2°55.901 187.4 12.3 187 26
2005-07-07 12:38:44 51°28.336 2°55.846 191.4 13 187 28.5
2005-07-07 12:39:45 51°28.126 2°55.806 191.9 12.5 186 29.3
2005-07-07 12:40:44 51°27.923 2°55.778 189.7 12.3 184 29.4
2005-07-07 12:41:45 51°27.721 2°55.743 193.7 12.2 190 30.9
2005-07-07 12:42:45 51°27.518 2°55.704 190.8 12.5 187 31.1
2005-07-07 12:43:44 51°27.314 2°55.67 189.4 12.4 184 30.3
2005-07-07 12:44:44 51°27.108 2°55.633 189.6 12.6 185 32.3
2005-07-07 12:45:44 51°26.9 2°55.592 188.2 12.3 193 31.3
2005-07-07 12:46:44 51°26.698 2°55.551 193.2 12.4 189 28.8
2005-07-07 12:47:44 51°26.493 2°55.506 190.5 12.6 186 27.1
2005-07-07 12:48:44 51°26.291 2°55.478 190.5 12.4 189 25
2005-07-07 12:49:45 51°26.083 2°55.444 194.2 12.2 184 24.6
2005-07-07 12:50:44 51°25.883 2°55.401 193 12.4 193 22.1
2005-07-07 12:51:44 51°25.67 2°55.372 192.1 12.5 186 21.6
2005-07-07 12:52:44 51°25.468 2°55.326 194.9 12.2 191 20.6
2005-07-07 12:53:45 51°25.262 2°55.271 193.8 12.6 190 20.3
2005-07-07 12:54:45 51°25.056 2°55.207 198.7 12.4 195 21.4
2005-07-07 12:55:44 51°24.852 2°55.143 197.4 12.7 192 22.2
2005-07-07 12:56:45 51°24.641 2°55.09 195.5 12.7 191 24.2
2005-07-07 12:57:45 51°24.44 2°55.03 193.5 12.1 189 24.8
2005-07-07 12:58:45 51°24.233 2°54.981 191.6 12.5 189 24.4
2005-07-07 12:59:44 51°24.034 2°54.924 194.6 12.2 188 23.5
2005-07-07 13:00:44 51°23.838 2°54.871 194 12 186 22.8
2005-07-07 13:01:45 51°23.635 2°54.818 196.9 12 189 21.8
2005-07-07 13:02:45 51°23.438 2°54.756 196.6 11.9 193 22.1
2005-07-07 13:03:44 51°23.24 2°54.702 193.9 12.4 194 22.4
2005-07-07 13:04:44 51°23.037 2°54.634 195.9 12.4 193 22.7
2005-07-07 13:05:44 51°22.836 2°54.567 196.9 12.3 193 23.9
2005-07-07 13:06:44 51°22.633 2°54.509 193.6 12.4 189 23.4
2005-07-07 13:07:44 51°22.428 2°54.451 194 12.6 187 22
2005-07-07 13:08:45 51°22.22 2°54.369 199.9 12.8 200 21
2005-07-07 13:09:45 51°22.024 2°54.258 202.5 12.1 201 21.4
2005-07-07 13:10:44 51°21.829 2°54.158 203.6 12.6 194 19.8
2005-07-07 13:11:44 51°21.633 2°54.058 200.9 12.6 199 19.6
2005-07-07 13:12:44 51°21.437 2°53.966 202.3 11.8 197 19.3
2005-07-07 13:13:45 51°21.245 2°53.87 200.8 12.3 194 19.3
2005-07-07 13:14:44 51°21.057 2°53.768 203.5 12 198 19.5
2005-07-07 13:15:45 51°20.859 2°53.663 205.3 12.6 196 19.2
2005-07-07 13:16:44 51°20.663 2°53.563 203.1 12.4 195 19.3
2005-07-07 13:17:44 51°20.474 2°53.47 202.2 11.8 197 19
2005-07-07 13:18:44 51°20.283 2°53.382 201.6 11.9 203 18.8
2005-07-07 13:19:44 51°20.094 2°53.285 201 11.9 195 18.6
2005-07-07 13:20:44 51°19.895 2°53.184 203 12.3 199 18.1
2005-07-07 13:21:44 51°19.703 2°53.093 202.4 12.3 195 17.4
2005-07-07 13:22:45 51°19.501 2°53.001 200.9 13 195 16.7
2005-07-07 13:23:45 51°19.303 2°52.907 202 12.2 195 16.2
2005-07-07 13:24:44 51°19.108 2°52.812 203.3 12.6 194 15.5
2005-07-07 13:25:44 51°18.91 2°52.719 195.6 12.8 195 14.8
2005-07-07 13:26:45 51°18.709 2°52.659 201 12.4 191 14.5
2005-07-07 13:27:44 51°18.509 2°52.597 195.4 12.7 185 14
2005-07-07 13:28:44 51°18.306 2°52.535 195.4 12.6 193 13.5
2005-07-07 13:29:45 51°18.101 2°52.488 194.5 12.3 192 13.4
2005-07-07 13:30:45 51°17.902 2°52.443 194.1 11.9 185 13.2
2005-07-07 13:31:45 51°17.702 2°52.389 197.5 12.2 192 13
2005-07-07 13:32:45 51°17.496 2°52.369 189.1 12.3 186 12.9
2005-07-07 13:33:45 51°17.29 2°52.371 184.7 12.1 179 13
2005-07-07 13:34:45 51°17.086 2°52.384 180.4 12.8 170 12.7
2005-07-07 13:35:45 51°16.883 2°52.446 167.6 12.4 164 12.5
2005-07-07 13:36:44 51°16.688 2°52.587 159.5 13.1 151 13.1
2005-07-07 13:37:45 51°16.496 2°52.77 158.8 13.2 149 14.3
2005-07-07 13:38:45 51°16.302 2°52.934 161.3 12.9 153 14.8
2005-07-07 13:39:44 51°16.114 2°53.103 160.3 12.7 150 14.6
2005-07-07 13:40:45 51°15.916 2°53.272 160.6 12.8 154 14.1
2005-07-07 13:41:44 51°15.726 2°53.439 158.2 13.1 149 13.8
2005-07-07 13:42:45 51°15.528 2°53.602 160.5 13.4 155 13.1
2005-07-07 13:43:44 51°15.336 2°53.747 164.7 12.6 158 12.6
2005-07-07 13:44:45 51°15.146 2°53.917 154.2 13 155 12
2005-07-07 13:45:45 51°14.967 2°54.105 153.3 12.5 148 11.5
2005-07-07 13:46:45 51°14.807 2°54.322 147.6 12.9 140 12.2
2005-07-07 13:47:45 51°14.649 2°54.549 143.6 13.3 134 12.4
2005-07-07 13:48:45 51°14.499 2°54.795 139.8 12.8 130 12.9
2005-07-07 13:49:45 51°14.365 2°55.06 137 12.3 134 13.2
2005-07-07 13:50:44 51°14.264 2°55.264 137 8.9 137 13.3
2005-07-07 13:51:45 51°14.163 2°55.392 152.4 7.5 148 13.1
2005-07-07 13:52:45 51°14.062 2°55.466 158.2 6.2 156 13.1
2005-07-07 13:53:45 51°13.974 2°55.53 158.9 6.1 156 13.8
2005-07-07 13:54:44 51°13.883 2°55.596 158.6 5.7 155 12.6
2005-07-07 13:55:45 51°13.803 2°55.658 154.6 4.9 152 13.2
2005-07-07 13:56:45 51°13.751 2°55.727 135.6 3.8 137 12
2005-07-07 13:57:45 51°13.715 2°55.793 131.4 3.3 130 14
2005-07-07 13:58:45 51°13.689 2°55.872 110.1 2.8 108 11.7
2005-07-07 13:59:44 51°13.683 2°55.901 117.2 0.4 121 11.6
2005-07-07 14:00:45 51°13.682 2°55.905 117 -999 249 11.5